sensor_id;sensor_type;location;lat;lon;timestamp;P1;durP1;ratioP1;P2;durP2;ratioP2
5493;SDS011;2769;49.864;8.656;2023-04-24T00:00:56;2.20;;;1.07;;
5493;SDS011;2769;49.864;8.656;2023-04-24T00:03:25;2.40;;;1.10;;
5493;SDS011;2769;49.864;8.656;2023-04-24T00:05:54;1.87;;;1.47;;
5493;SDS011;2769;49.864;8.656;2023-04-24T00:08:22;1.33;;;1.07;;
5493;SDS011;2769;49.864;8.656;2023-04-24T00:10:50;1.37;;;1.27;;
5493;SDS011;2769;49.864;8.656;2023-04-24T00:13:19;1.27;;;1.20;;
5493;SDS011;2769;49.864;8.656;2023-04-24T00:15:47;2.40;;;1.33;;
5493;SDS011;2769;49.864;8.656;2023-04-24T00:18:16;2.10;;;1.00;;
5493;SDS011;2769;49.864;8.656;2023-04-24T00:20:44;1.43;;;1.00;;
5493;SDS011;2769;49.864;8.656;2023-04-24T00:23:13;0.90;;;0.90;;
5493;SDS011;2769;49.864;8.656;2023-04-24T00:25:41;4.50;;;1.10;;
5493;SDS011;2769;49.864;8.656;2023-04-24T00:28:08;1.87;;;1.10;;
5493;SDS011;2769;49.864;8.656;2023-04-24T00:30:36;1.10;;;1.10;;
5493;SDS011;2769;49.864;8.656;2023-04-24T00:33:04;1.33;;;1.00;;
5493;SDS011;2769;49.864;8.656;2023-04-24T00:35:34;4.20;;;1.47;;
5493;SDS011;2769;49.864;8.656;2023-04-24T00:38:02;2.40;;;1.07;;
5493;SDS011;2769;49.864;8.656;2023-04-24T00:40:30;2.33;;;1.20;;
5493;SDS011;2769;49.864;8.656;2023-04-24T00:42:57;1.97;;;1.20;;
5493;SDS011;2769;49.864;8.656;2023-04-24T00:45:25;1.30;;;1.20;;
5493;SDS011;2769;49.864;8.656;2023-04-24T00:47:53;1.50;;;1.20;;
5493;SDS011;2769;49.864;8.656;2023-04-24T00:50:22;1.23;;;1.10;;
5493;SDS011;2769;49.864;8.656;2023-04-24T00:52:52;1.40;;;1.30;;
5493;SDS011;2769;49.864;8.656;2023-04-24T00:55:20;2.63;;;1.40;;
5493;SDS011;2769;49.864;8.656;2023-04-24T00:57:48;1.17;;;1.13;;
5493;SDS011;2769;49.864;8.656;2023-04-24T01:00:17;1.63;;;1.53;;
5493;SDS011;2769;49.864;8.656;2023-04-24T01:02:45;1.50;;;1.40;;
5493;SDS011;2769;49.864;8.656;2023-04-24T01:05:14;3.83;;;1.33;;
5493;SDS011;2769;49.864;8.656;2023-04-24T01:07:43;3.83;;;1.30;;
5493;SDS011;2769;49.864;8.656;2023-04-24T01:10:16;1.33;;;1.23;;
5493;SDS011;2769;49.864;8.656;2023-04-24T01:12:45;1.47;;;1.37;;
5493;SDS011;2769;49.864;8.656;2023-04-24T01:15:13;2.70;;;1.30;;
5493;SDS011;2769;49.864;8.656;2023-04-24T01:17:41;1.60;;;1.50;;
5493;SDS011;2769;49.864;8.656;2023-04-24T01:20:09;3.23;;;1.37;;
5493;SDS011;2769;49.864;8.656;2023-04-24T01:22:41;1.90;;;1.73;;
5493;SDS011;2769;49.864;8.656;2023-04-24T01:25:09;1.63;;;1.30;;
5493;SDS011;2769;49.864;8.656;2023-04-24T01:27:37;5.20;;;1.50;;
5493;SDS011;2769;49.864;8.656;2023-04-24T01:30:06;1.20;;;1.10;;
5493;SDS011;2769;49.864;8.656;2023-04-24T01:32:35;3.03;;;1.30;;
5493;SDS011;2769;49.864;8.656;2023-04-24T01:35:04;2.77;;;1.60;;
5493;SDS011;2769;49.864;8.656;2023-04-24T01:37:33;1.53;;;1.40;;
5493;SDS011;2769;49.864;8.656;2023-04-24T01:40:02;4.70;;;1.50;;
5493;SDS011;2769;49.864;8.656;2023-04-24T01:42:31;1.30;;;1.20;;
5493;SDS011;2769;49.864;8.656;2023-04-24T01:45:01;1.40;;;1.30;;
5493;SDS011;2769;49.864;8.656;2023-04-24T01:47:30;2.97;;;1.30;;
5493;SDS011;2769;49.864;8.656;2023-04-24T01:49:58;1.73;;;1.63;;
5493;SDS011;2769;49.864;8.656;2023-04-24T01:52:26;1.23;;;1.13;;
5493;SDS011;2769;49.864;8.656;2023-04-24T01:54:59;1.33;;;1.23;;
5493;SDS011;2769;49.864;8.656;2023-04-24T01:57:29;1.20;;;1.10;;
5493;SDS011;2769;49.864;8.656;2023-04-24T01:59:57;2.33;;;1.30;;
5493;SDS011;2769;49.864;8.656;2023-04-24T02:02:27;1.33;;;1.10;;
5493;SDS011;2769;49.864;8.656;2023-04-24T02:04:56;1.23;;;1.13;;
5493;SDS011;2769;49.864;8.656;2023-04-24T02:07:24;2.27;;;1.30;;
5493;SDS011;2769;49.864;8.656;2023-04-24T02:09:52;2.97;;;1.33;;
5493;SDS011;2769;49.864;8.656;2023-04-24T02:12:21;1.20;;;1.20;;
5493;SDS011;2769;49.864;8.656;2023-04-24T02:14:51;4.23;;;1.20;;
5493;SDS011;2769;49.864;8.656;2023-04-24T02:17:19;2.97;;;1.50;;
5493;SDS011;2769;49.864;8.656;2023-04-24T02:19:47;1.47;;;1.20;;
5493;SDS011;2769;49.864;8.656;2023-04-24T02:22:16;1.37;;;1.27;;
5493;SDS011;2769;49.864;8.656;2023-04-24T02:24:44;3.93;;;1.43;;
5493;SDS011;2769;49.864;8.656;2023-04-24T02:27:14;1.47;;;1.37;;
5493;SDS011;2769;49.864;8.656;2023-04-24T02:29:42;4.90;;;1.60;;
5493;SDS011;2769;49.864;8.656;2023-04-24T02:32:12;1.30;;;1.20;;
5493;SDS011;2769;49.864;8.656;2023-04-24T02:34:42;1.40;;;1.30;;
5493;SDS011;2769;49.864;8.656;2023-04-24T02:37:11;4.67;;;1.67;;
5493;SDS011;2769;49.864;8.656;2023-04-24T02:39:39;2.23;;;1.30;;
5493;SDS011;2769;49.864;8.656;2023-04-24T02:42:07;2.83;;;1.80;;
5493;SDS011;2769;49.864;8.656;2023-04-24T02:44:35;4.20;;;1.70;;
5493;SDS011;2769;49.864;8.656;2023-04-24T02:47:03;3.97;;;1.53;;
5493;SDS011;2769;49.864;8.656;2023-04-24T02:49:32;3.10;;;1.50;;
5493;SDS011;2769;49.864;8.656;2023-04-24T02:52:00;1.73;;;1.63;;
5493;SDS011;2769;49.864;8.656;2023-04-24T02:54:28;3.73;;;1.80;;
5493;SDS011;2769;49.864;8.656;2023-04-24T02:56:56;1.87;;;1.67;;
5493;SDS011;2769;49.864;8.656;2023-04-24T02:59:24;2.33;;;1.70;;
5493;SDS011;2769;49.864;8.656;2023-04-24T03:01:53;1.80;;;1.70;;
5493;SDS011;2769;49.864;8.656;2023-04-24T03:04:21;2.70;;;1.90;;
5493;SDS011;2769;49.864;8.656;2023-04-24T03:06:50;2.13;;;1.93;;
5493;SDS011;2769;49.864;8.656;2023-04-24T03:09:19;2.40;;;2.20;;
5493;SDS011;2769;49.864;8.656;2023-04-24T03:11:47;2.07;;;1.97;;
5493;SDS011;2769;49.864;8.656;2023-04-24T03:14:16;1.70;;;1.60;;
5493;SDS011;2769;49.864;8.656;2023-04-24T03:16:44;4.90;;;2.23;;
5493;SDS011;2769;49.864;8.656;2023-04-24T03:19:12;4.33;;;2.07;;
5493;SDS011;2769;49.864;8.656;2023-04-24T03:21:53;2.07;;;1.93;;
5493;SDS011;2769;49.864;8.656;2023-04-24T03:24:20;3.43;;;2.30;;
5493;SDS011;2769;49.864;8.656;2023-04-24T03:26:49;2.07;;;1.90;;
5493;SDS011;2769;49.864;8.656;2023-04-24T03:29:39;1.57;;;1.40;;
5493;SDS011;2769;49.864;8.656;2023-04-24T03:32:08;1.80;;;1.70;;
5493;SDS011;2769;49.864;8.656;2023-04-24T03:34:37;1.53;;;1.43;;
5493;SDS011;2769;49.864;8.656;2023-04-24T03:37:08;7.67;;;1.70;;
5493;SDS011;2769;49.864;8.656;2023-04-24T03:39:40;3.00;;;1.40;;
5493;SDS011;2769;49.864;8.656;2023-04-24T03:42:08;4.00;;;1.97;;
5493;SDS011;2769;49.864;8.656;2023-04-24T03:44:46;1.90;;;1.80;;
5493;SDS011;2769;49.864;8.656;2023-04-24T03:47:14;2.53;;;1.70;;
5493;SDS011;2769;49.864;8.656;2023-04-24T03:49:43;4.03;;;1.90;;
5493;SDS011;2769;49.864;8.656;2023-04-24T03:52:12;2.10;;;1.90;;
5493;SDS011;2769;49.864;8.656;2023-04-24T03:54:40;2.13;;;2.00;;
5493;SDS011;2769;49.864;8.656;2023-04-24T03:57:09;1.90;;;1.80;;
5493;SDS011;2769;49.864;8.656;2023-04-24T03:59:45;4.93;;;1.93;;
5493;SDS011;2769;49.864;8.656;2023-04-24T04:02:17;2.00;;;1.80;;
5493;SDS011;2769;49.864;8.656;2023-04-24T04:04:45;2.07;;;1.90;;
5493;SDS011;2769;49.864;8.656;2023-04-24T04:07:15;4.00;;;2.13;;
5493;SDS011;2769;49.864;8.656;2023-04-24T04:09:43;2.43;;;2.23;;
5493;SDS011;2769;49.864;8.656;2023-04-24T04:12:11;2.30;;;2.20;;
5493;SDS011;2769;49.864;8.656;2023-04-24T04:14:40;2.30;;;2.17;;
5493;SDS011;2769;49.864;8.656;2023-04-24T04:17:08;2.40;;;2.20;;
5493;SDS011;2769;49.864;8.656;2023-04-24T04:19:36;3.03;;;2.50;;
5493;SDS011;2769;49.864;8.656;2023-04-24T04:22:04;2.70;;;2.50;;
5493;SDS011;2769;49.864;8.656;2023-04-24T04:24:41;3.50;;;3.10;;
5493;SDS011;2769;49.864;8.656;2023-04-24T04:27:10;4.67;;;2.80;;
5493;SDS011;2769;49.864;8.656;2023-04-24T04:29:48;3.90;;;3.30;;
5493;SDS011;2769;49.864;8.656;2023-04-24T04:32:16;3.50;;;3.30;;
5493;SDS011;2769;49.864;8.656;2023-04-24T04:34:44;3.50;;;3.20;;
5493;SDS011;2769;49.864;8.656;2023-04-24T04:37:12;7.13;;;3.63;;
5493;SDS011;2769;49.864;8.656;2023-04-24T04:40:07;3.47;;;3.17;;
5493;SDS011;2769;49.864;8.656;2023-04-24T04:42:47;3.53;;;3.20;;
5493;SDS011;2769;49.864;8.656;2023-04-24T04:45:15;3.57;;;3.37;;
5493;SDS011;2769;49.864;8.656;2023-04-24T04:48:13;3.97;;;3.60;;
5493;SDS011;2769;49.864;8.656;2023-04-24T04:50:44;4.13;;;3.67;;
5493;SDS011;2769;49.864;8.656;2023-04-24T04:53:12;4.20;;;3.53;;
5493;SDS011;2769;49.864;8.656;2023-04-24T04:55:42;4.10;;;3.70;;
5493;SDS011;2769;49.864;8.656;2023-04-24T04:58:13;5.90;;;4.10;;
5493;SDS011;2769;49.864;8.656;2023-04-24T05:00:43;7.70;;;4.30;;
5493;SDS011;2769;49.864;8.656;2023-04-24T05:03:31;4.03;;;3.83;;
5493;SDS011;2769;49.864;8.656;2023-04-24T05:06:04;4.07;;;3.77;;
5493;SDS011;2769;49.864;8.656;2023-04-24T05:08:36;4.97;;;3.83;;
5493;SDS011;2769;49.864;8.656;2023-04-24T05:11:09;4.23;;;4.00;;
5493;SDS011;2769;49.864;8.656;2023-04-24T05:13:38;4.97;;;3.10;;
5493;SDS011;2769;49.864;8.656;2023-04-24T05:16:17;9.90;;;4.30;;
5493;SDS011;2769;49.864;8.656;2023-04-24T05:18:47;5.53;;;4.50;;
5493;SDS011;2769;49.864;8.656;2023-04-24T05:21:18;5.00;;;4.50;;
5493;SDS011;2769;49.864;8.656;2023-04-24T05:23:49;5.10;;;4.20;;
5493;SDS011;2769;49.864;8.656;2023-04-24T05:26:33;4.63;;;4.00;;
5493;SDS011;2769;49.864;8.656;2023-04-24T05:29:03;4.10;;;3.77;;
5493;SDS011;2769;49.864;8.656;2023-04-24T05:31:31;6.00;;;4.10;;
5493;SDS011;2769;49.864;8.656;2023-04-24T05:34:00;4.17;;;3.67;;
5493;SDS011;2769;49.864;8.656;2023-04-24T05:36:28;3.93;;;3.73;;
5493;SDS011;2769;49.864;8.656;2023-04-24T05:38:57;4.33;;;3.93;;
5493;SDS011;2769;49.864;8.656;2023-04-24T05:41:25;3.50;;;3.30;;
5493;SDS011;2769;49.864;8.656;2023-04-24T05:43:54;4.23;;;3.93;;
5493;SDS011;2769;49.864;8.656;2023-04-24T05:46:22;4.20;;;3.80;;
5493;SDS011;2769;49.864;8.656;2023-04-24T05:48:50;4.80;;;3.87;;
5493;SDS011;2769;49.864;8.656;2023-04-24T05:51:18;3.90;;;3.70;;
5493;SDS011;2769;49.864;8.656;2023-04-24T05:53:46;5.70;;;4.13;;
5493;SDS011;2769;49.864;8.656;2023-04-24T05:56:14;4.47;;;4.17;;
5493;SDS011;2769;49.864;8.656;2023-04-24T05:58:43;4.80;;;4.40;;
5493;SDS011;2769;49.864;8.656;2023-04-24T06:01:12;5.50;;;4.40;;
5493;SDS011;2769;49.864;8.656;2023-04-24T06:03:45;7.27;;;4.50;;
5493;SDS011;2769;49.864;8.656;2023-04-24T06:06:13;7.27;;;4.20;;
5493;SDS011;2769;49.864;8.656;2023-04-24T06:08:42;4.00;;;3.70;;
5493;SDS011;2769;49.864;8.656;2023-04-24T06:11:12;7.10;;;4.13;;
5493;SDS011;2769;49.864;8.656;2023-04-24T06:13:40;4.47;;;4.17;;
5493;SDS011;2769;49.864;8.656;2023-04-24T06:16:28;4.20;;;3.90;;
5493;SDS011;2769;49.864;8.656;2023-04-24T06:19:02;3.87;;;3.57;;
5493;SDS011;2769;49.864;8.656;2023-04-24T06:21:30;7.90;;;4.30;;
5493;SDS011;2769;49.864;8.656;2023-04-24T06:23:58;4.37;;;4.07;;
5493;SDS011;2769;49.864;8.656;2023-04-24T06:26:26;3.90;;;3.70;;
5493;SDS011;2769;49.864;8.656;2023-04-24T06:28:55;4.50;;;4.13;;
5493;SDS011;2769;49.864;8.656;2023-04-24T06:31:24;3.73;;;3.53;;
5493;SDS011;2769;49.864;8.656;2023-04-24T06:33:54;6.30;;;4.00;;
5493;SDS011;2769;49.864;8.656;2023-04-24T06:36:23;4.00;;;3.60;;
5493;SDS011;2769;49.864;8.656;2023-04-24T06:38:51;4.40;;;4.10;;
5493;SDS011;2769;49.864;8.656;2023-04-24T06:41:19;4.43;;;4.03;;
5493;SDS011;2769;49.864;8.656;2023-04-24T06:43:46;4.63;;;4.10;;
5493;SDS011;2769;49.864;8.656;2023-04-24T06:46:14;5.17;;;4.67;;
5493;SDS011;2769;49.864;8.656;2023-04-24T06:48:42;5.20;;;3.73;;
5493;SDS011;2769;49.864;8.656;2023-04-24T06:51:12;5.83;;;4.43;;
5493;SDS011;2769;49.864;8.656;2023-04-24T06:53:40;5.60;;;5.10;;
5493;SDS011;2769;49.864;8.656;2023-04-24T06:56:08;7.97;;;5.53;;
5493;SDS011;2769;49.864;8.656;2023-04-24T06:58:35;5.30;;;4.90;;
5493;SDS011;2769;49.864;8.656;2023-04-24T07:01:03;11.23;;;5.73;;
5493;SDS011;2769;49.864;8.656;2023-04-24T07:03:31;9.17;;;5.17;;
5493;SDS011;2769;49.864;8.656;2023-04-24T07:05:59;7.60;;;6.07;;
5493;SDS011;2769;49.864;8.656;2023-04-24T07:08:29;5.70;;;5.20;;
5493;SDS011;2769;49.864;8.656;2023-04-24T07:10:57;6.83;;;5.20;;
5493;SDS011;2769;49.864;8.656;2023-04-24T07:13:25;5.97;;;5.23;;
5493;SDS011;2769;49.864;8.656;2023-04-24T07:15:54;5.20;;;4.70;;
5493;SDS011;2769;49.864;8.656;2023-04-24T07:18:22;5.57;;;5.07;;
5493;SDS011;2769;49.864;8.656;2023-04-24T07:20:51;6.13;;;5.53;;
5493;SDS011;2769;49.864;8.656;2023-04-24T07:23:19;6.67;;;5.60;;
5493;SDS011;2769;49.864;8.656;2023-04-24T07:25:49;4.63;;;4.23;;
5493;SDS011;2769;49.864;8.656;2023-04-24T07:28:17;10.03;;;5.40;;
5493;SDS011;2769;49.864;8.656;2023-04-24T07:30:45;7.20;;;4.67;;
5493;SDS011;2769;49.864;8.656;2023-04-24T07:33:13;5.90;;;5.37;;
5493;SDS011;2769;49.864;8.656;2023-04-24T07:35:41;5.40;;;4.90;;
5493;SDS011;2769;49.864;8.656;2023-04-24T07:38:09;5.93;;;5.33;;
5493;SDS011;2769;49.864;8.656;2023-04-24T07:40:37;6.20;;;5.40;;
5493;SDS011;2769;49.864;8.656;2023-04-24T07:43:07;6.33;;;5.73;;
5493;SDS011;2769;49.864;8.656;2023-04-24T07:45:35;6.70;;;4.60;;
5493;SDS011;2769;49.864;8.656;2023-04-24T07:48:04;11.13;;;6.50;;
5493;SDS011;2769;49.864;8.656;2023-04-24T07:50:32;6.90;;;5.60;;
5493;SDS011;2769;49.864;8.656;2023-04-24T07:53:01;8.20;;;5.17;;
5493;SDS011;2769;49.864;8.656;2023-04-24T07:55:29;6.33;;;5.40;;
5493;SDS011;2769;49.864;8.656;2023-04-24T07:57:58;10.00;;;5.50;;
5493;SDS011;2769;49.864;8.656;2023-04-24T08:00:27;5.50;;;4.60;;
5493;SDS011;2769;49.864;8.656;2023-04-24T08:02:56;7.20;;;4.70;;
5493;SDS011;2769;49.864;8.656;2023-04-24T08:05:24;5.67;;;4.37;;
5493;SDS011;2769;49.864;8.656;2023-04-24T08:07:55;2.30;;;2.20;;
5493;SDS011;2769;49.864;8.656;2023-04-24T08:10:23;8.43;;;2.13;;
5493;SDS011;2769;49.864;8.656;2023-04-24T08:12:52;2.20;;;1.70;;
5493;SDS011;2769;49.864;8.656;2023-04-24T08:15:21;2.37;;;2.07;;
5493;SDS011;2769;49.864;8.656;2023-04-24T08:17:51;2.60;;;2.40;;
5493;SDS011;2769;49.864;8.656;2023-04-24T08:20:20;2.07;;;1.90;;
5493;SDS011;2769;49.864;8.656;2023-04-24T08:22:48;2.50;;;2.30;;
5493;SDS011;2769;49.864;8.656;2023-04-24T08:25:16;2.67;;;2.20;;
5493;SDS011;2769;49.864;8.656;2023-04-24T08:27:45;2.20;;;2.10;;
5493;SDS011;2769;49.864;8.656;2023-04-24T08:30:14;2.60;;;2.50;;
5493;SDS011;2769;49.864;8.656;2023-04-24T08:32:42;4.17;;;2.70;;
5493;SDS011;2769;49.864;8.656;2023-04-24T08:35:12;2.47;;;2.27;;
5493;SDS011;2769;49.864;8.656;2023-04-24T08:37:40;2.60;;;2.40;;
5493;SDS011;2769;49.864;8.656;2023-04-24T08:40:10;2.47;;;2.27;;
5493;SDS011;2769;49.864;8.656;2023-04-24T08:42:41;2.40;;;2.20;;
5493;SDS011;2769;49.864;8.656;2023-04-24T08:45:11;2.53;;;2.33;;
5493;SDS011;2769;49.864;8.656;2023-04-24T08:47:40;2.40;;;2.20;;
5493;SDS011;2769;49.864;8.656;2023-04-24T08:50:16;2.70;;;2.50;;
5493;SDS011;2769;49.864;8.656;2023-04-24T08:52:44;2.80;;;2.60;;
5493;SDS011;2769;49.864;8.656;2023-04-24T08:55:12;4.33;;;3.17;;
5493;SDS011;2769;49.864;8.656;2023-04-24T08:57:43;3.33;;;2.60;;
5493;SDS011;2769;49.864;8.656;2023-04-24T09:00:12;3.23;;;3.03;;
5493;SDS011;2769;49.864;8.656;2023-04-24T09:02:41;4.30;;;3.00;;
5493;SDS011;2769;49.864;8.656;2023-04-24T09:05:11;9.43;;;2.63;;
5493;SDS011;2769;49.864;8.656;2023-04-24T09:07:41;3.57;;;3.27;;
5493;SDS011;2769;49.864;8.656;2023-04-24T09:10:12;4.13;;;3.40;;
5493;SDS011;2769;49.864;8.656;2023-04-24T09:12:41;2.97;;;2.73;;
5493;SDS011;2769;49.864;8.656;2023-04-24T09:15:10;3.13;;;2.93;;
5493;SDS011;2769;49.864;8.656;2023-04-24T09:17:38;5.17;;;3.00;;
5493;SDS011;2769;49.864;8.656;2023-04-24T09:20:07;4.63;;;3.17;;
5493;SDS011;2769;49.864;8.656;2023-04-24T09:22:36;3.00;;;2.77;;
5493;SDS011;2769;49.864;8.656;2023-04-24T09:25:06;3.03;;;2.83;;
5493;SDS011;2769;49.864;8.656;2023-04-24T09:27:35;4.40;;;3.10;;
5493;SDS011;2769;49.864;8.656;2023-04-24T09:30:03;2.90;;;2.63;;
5493;SDS011;2769;49.864;8.656;2023-04-24T09:32:34;3.00;;;2.80;;
5493;SDS011;2769;49.864;8.656;2023-04-24T09:35:06;2.83;;;2.70;;
5493;SDS011;2769;49.864;8.656;2023-04-24T09:37:35;2.67;;;2.50;;
5493;SDS011;2769;49.864;8.656;2023-04-24T09:40:10;2.80;;;2.57;;
5493;SDS011;2769;49.864;8.656;2023-04-24T09:42:39;2.87;;;2.60;;
5493;SDS011;2769;49.864;8.656;2023-04-24T09:45:10;3.60;;;3.40;;
5493;SDS011;2769;49.864;8.656;2023-04-24T09:47:41;2.90;;;2.70;;
5493;SDS011;2769;49.864;8.656;2023-04-24T09:50:13;3.57;;;2.90;;
5493;SDS011;2769;49.864;8.656;2023-04-24T09:52:43;5.73;;;3.10;;
5493;SDS011;2769;49.864;8.656;2023-04-24T09:55:18;3.93;;;3.63;;
5493;SDS011;2769;49.864;8.656;2023-04-24T09:57:48;3.30;;;3.00;;
5493;SDS011;2769;49.864;8.656;2023-04-24T10:00:18;3.60;;;3.30;;
5493;SDS011;2769;49.864;8.656;2023-04-24T10:02:54;3.40;;;3.20;;
5493;SDS011;2769;49.864;8.656;2023-04-24T10:05:24;4.80;;;3.17;;
5493;SDS011;2769;49.864;8.656;2023-04-24T10:07:55;2.97;;;2.77;;
5493;SDS011;2769;49.864;8.656;2023-04-24T10:10:25;3.20;;;2.90;;
5493;SDS011;2769;49.864;8.656;2023-04-24T10:12:54;3.13;;;2.93;;
5493;SDS011;2769;49.864;8.656;2023-04-24T10:15:23;2.80;;;2.60;;
5493;SDS011;2769;49.864;8.656;2023-04-24T10:17:52;3.10;;;2.80;;
5493;SDS011;2769;49.864;8.656;2023-04-24T10:20:21;2.90;;;2.70;;
5493;SDS011;2769;49.864;8.656;2023-04-24T10:22:50;3.20;;;3.00;;
5493;SDS011;2769;49.864;8.656;2023-04-24T10:25:19;3.13;;;2.93;;
5493;SDS011;2769;49.864;8.656;2023-04-24T10:27:50;2.60;;;2.50;;
5493;SDS011;2769;49.864;8.656;2023-04-24T10:30:19;3.67;;;3.33;;
5493;SDS011;2769;49.864;8.656;2023-04-24T10:32:47;3.97;;;3.67;;
5493;SDS011;2769;49.864;8.656;2023-04-24T10:35:15;2.97;;;2.77;;
5493;SDS011;2769;49.864;8.656;2023-04-24T10:37:44;3.00;;;2.80;;
5493;SDS011;2769;49.864;8.656;2023-04-24T10:40:16;2.80;;;2.60;;
5493;SDS011;2769;49.864;8.656;2023-04-24T10:42:47;2.60;;;2.50;;
5493;SDS011;2769;49.864;8.656;2023-04-24T10:45:20;2.53;;;2.23;;
5493;SDS011;2769;49.864;8.656;2023-04-24T10:47:53;2.80;;;2.60;;
5493;SDS011;2769;49.864;8.656;2023-04-24T10:50:25;2.80;;;2.60;;
5493;SDS011;2769;49.864;8.656;2023-04-24T10:52:55;2.83;;;2.63;;
5493;SDS011;2769;49.864;8.656;2023-04-24T10:55:42;2.17;;;2.07;;
5493;SDS011;2769;49.864;8.656;2023-04-24T10:58:11;2.20;;;2.03;;
5493;SDS011;2769;49.864;8.656;2023-04-24T11:00:41;3.00;;;2.80;;
5493;SDS011;2769;49.864;8.656;2023-04-24T11:03:22;2.63;;;2.53;;
5493;SDS011;2769;49.864;8.656;2023-04-24T11:05:53;2.90;;;2.70;;
5493;SDS011;2769;49.864;8.656;2023-04-24T11:08:24;3.40;;;2.90;;
5493;SDS011;2769;49.864;8.656;2023-04-24T11:10:56;10.07;;;3.50;;
5493;SDS011;2769;49.864;8.656;2023-04-24T11:16:34;3.13;;;2.87;;
5493;SDS011;2769;49.864;8.656;2023-04-24T11:19:20;3.07;;;2.60;;
5493;SDS011;2769;49.864;8.656;2023-04-24T11:21:54;3.20;;;3.00;;
5493;SDS011;2769;49.864;8.656;2023-04-24T11:24:27;3.00;;;2.90;;
5493;SDS011;2769;49.864;8.656;2023-04-24T11:27:04;7.97;;;4.27;;
5493;SDS011;2769;49.864;8.656;2023-04-24T11:29:45;4.47;;;3.30;;
5493;SDS011;2769;49.864;8.656;2023-04-24T11:32:26;4.60;;;4.07;;
5493;SDS011;2769;49.864;8.656;2023-04-24T11:34:56;4.00;;;3.63;;
5493;SDS011;2769;49.864;8.656;2023-04-24T11:37:26;4.70;;;4.30;;
5493;SDS011;2769;49.864;8.656;2023-04-24T11:39:56;4.90;;;4.57;;
5493;SDS011;2769;49.864;8.656;2023-04-24T11:42:25;7.40;;;4.67;;
5493;SDS011;2769;49.864;8.656;2023-04-24T11:44:53;7.90;;;4.33;;
5493;SDS011;2769;49.864;8.656;2023-04-24T11:47:32;9.47;;;4.80;;
5493;SDS011;2769;49.864;8.656;2023-04-24T11:50:00;5.53;;;5.03;;
5493;SDS011;2769;49.864;8.656;2023-04-24T11:52:29;5.00;;;4.67;;
5493;SDS011;2769;49.864;8.656;2023-04-24T11:54:57;5.03;;;4.63;;
5493;SDS011;2769;49.864;8.656;2023-04-24T11:57:25;6.47;;;5.30;;
5493;SDS011;2769;49.864;8.656;2023-04-24T11:59:55;5.30;;;4.90;;
5493;SDS011;2769;49.864;8.656;2023-04-24T12:02:23;5.70;;;5.20;;
5493;SDS011;2769;49.864;8.656;2023-04-24T12:04:53;4.87;;;4.47;;
5493;SDS011;2769;49.864;8.656;2023-04-24T12:07:22;8.17;;;4.43;;
5493;SDS011;2769;49.864;8.656;2023-04-24T12:09:55;4.60;;;4.20;;
5493;SDS011;2769;49.864;8.656;2023-04-24T12:12:25;4.33;;;3.93;;
5493;SDS011;2769;49.864;8.656;2023-04-24T12:14:54;3.17;;;2.97;;
5493;SDS011;2769;49.864;8.656;2023-04-24T12:17:24;3.20;;;3.00;;
5493;SDS011;2769;49.864;8.656;2023-04-24T12:19:58;3.10;;;2.87;;
5493;SDS011;2769;49.864;8.656;2023-04-24T12:22:28;3.10;;;2.80;;
5493;SDS011;2769;49.864;8.656;2023-04-24T12:25:03;2.80;;;2.70;;
5493;SDS011;2769;49.864;8.656;2023-04-24T12:27:35;1.87;;;1.77;;
5493;SDS011;2769;49.864;8.656;2023-04-24T12:30:04;1.87;;;1.77;;
5493;SDS011;2769;49.864;8.656;2023-04-24T12:32:33;1.90;;;1.80;;
5493;SDS011;2769;49.864;8.656;2023-04-24T12:35:04;2.73;;;2.23;;
5493;SDS011;2769;49.864;8.656;2023-04-24T12:37:33;2.00;;;1.90;;
5493;SDS011;2769;49.864;8.656;2023-04-24T12:40:06;2.60;;;2.50;;
5493;SDS011;2769;49.864;8.656;2023-04-24T12:42:35;2.73;;;2.50;;
5493;SDS011;2769;49.864;8.656;2023-04-24T12:45:04;2.80;;;2.60;;
5493;SDS011;2769;49.864;8.656;2023-04-24T12:47:33;3.20;;;3.00;;
5493;SDS011;2769;49.864;8.656;2023-04-24T12:50:04;2.53;;;2.30;;
5493;SDS011;2769;49.864;8.656;2023-04-24T12:52:33;2.77;;;2.57;;
5493;SDS011;2769;49.864;8.656;2023-04-24T12:55:01;2.87;;;2.67;;
5493;SDS011;2769;49.864;8.656;2023-04-24T12:57:29;2.63;;;2.43;;
5493;SDS011;2769;49.864;8.656;2023-04-24T12:59:58;2.80;;;2.60;;
5493;SDS011;2769;49.864;8.656;2023-04-24T13:02:27;4.30;;;3.03;;
5493;SDS011;2769;49.864;8.656;2023-04-24T13:04:56;2.80;;;2.67;;
5493;SDS011;2769;49.864;8.656;2023-04-24T13:07:25;4.40;;;2.80;;
5493;SDS011;2769;49.864;8.656;2023-04-24T13:09:54;3.70;;;3.50;;
5493;SDS011;2769;49.864;8.656;2023-04-24T13:12:23;3.13;;;2.70;;
5493;SDS011;2769;49.864;8.656;2023-04-24T13:14:52;3.67;;;3.33;;
5493;SDS011;2769;49.864;8.656;2023-04-24T13:17:20;5.80;;;3.73;;
5493;SDS011;2769;49.864;8.656;2023-04-24T13:19:49;3.50;;;3.27;;
5493;SDS011;2769;49.864;8.656;2023-04-24T13:22:17;3.20;;;2.97;;
5493;SDS011;2769;49.864;8.656;2023-04-24T13:24:47;3.03;;;2.83;;
5493;SDS011;2769;49.864;8.656;2023-04-24T13:27:16;3.83;;;3.00;;
5493;SDS011;2769;49.864;8.656;2023-04-24T13:29:44;3.37;;;3.07;;
5493;SDS011;2769;49.864;8.656;2023-04-24T13:32:12;3.40;;;3.10;;
5493;SDS011;2769;49.864;8.656;2023-04-24T13:34:40;5.40;;;3.37;;
5493;SDS011;2769;49.864;8.656;2023-04-24T13:37:08;6.40;;;3.23;;
5493;SDS011;2769;49.864;8.656;2023-04-24T13:39:36;7.70;;;4.00;;
5493;SDS011;2769;49.864;8.656;2023-04-24T13:42:05;3.90;;;3.60;;
5493;SDS011;2769;49.864;8.656;2023-04-24T13:44:33;3.00;;;2.70;;
5493;SDS011;2769;49.864;8.656;2023-04-24T13:47:01;4.10;;;3.20;;
5493;SDS011;2769;49.864;8.656;2023-04-24T13:49:29;3.87;;;3.57;;
5493;SDS011;2769;49.864;8.656;2023-04-24T13:51:57;3.47;;;3.17;;
5493;SDS011;2769;49.864;8.656;2023-04-24T13:54:25;4.07;;;3.50;;
5493;SDS011;2769;49.864;8.656;2023-04-24T13:56:53;8.93;;;3.20;;
5493;SDS011;2769;49.864;8.656;2023-04-24T13:59:25;5.80;;;3.20;;
5493;SDS011;2769;49.864;8.656;2023-04-24T14:01:53;3.70;;;3.40;;
5493;SDS011;2769;49.864;8.656;2023-04-24T14:04:21;4.23;;;3.20;;
5493;SDS011;2769;49.864;8.656;2023-04-24T14:06:49;3.57;;;3.20;;
5493;SDS011;2769;49.864;8.656;2023-04-24T14:09:17;3.03;;;2.83;;
5493;SDS011;2769;49.864;8.656;2023-04-24T14:11:45;4.70;;;3.60;;
5493;SDS011;2769;49.864;8.656;2023-04-24T14:14:13;4.00;;;3.57;;
5493;SDS011;2769;49.864;8.656;2023-04-24T14:16:42;3.47;;;3.23;;
5493;SDS011;2769;49.864;8.656;2023-04-24T14:19:10;7.90;;;3.20;;
5493;SDS011;2769;49.864;8.656;2023-04-24T14:21:38;3.97;;;3.37;;
5493;SDS011;2769;49.864;8.656;2023-04-24T14:24:07;7.50;;;3.67;;
5493;SDS011;2769;49.864;8.656;2023-04-24T14:26:35;4.83;;;3.50;;
5493;SDS011;2769;49.864;8.656;2023-04-24T14:29:03;3.40;;;3.20;;
5493;SDS011;2769;49.864;8.656;2023-04-24T14:31:40;3.47;;;2.60;;
5493;SDS011;2769;49.864;8.656;2023-04-24T14:34:09;3.10;;;2.87;;
5493;SDS011;2769;49.864;8.656;2023-04-24T14:36:37;3.47;;;3.17;;
5493;SDS011;2769;49.864;8.656;2023-04-24T14:39:05;3.20;;;3.00;;
5493;SDS011;2769;49.864;8.656;2023-04-24T14:41:34;4.40;;;3.13;;
5493;SDS011;2769;49.864;8.656;2023-04-24T14:44:02;2.93;;;2.73;;
5493;SDS011;2769;49.864;8.656;2023-04-24T14:46:30;3.33;;;3.10;;
5493;SDS011;2769;49.864;8.656;2023-04-24T14:48:59;4.33;;;2.83;;
5493;SDS011;2769;49.864;8.656;2023-04-24T14:51:28;3.57;;;3.27;;
5493;SDS011;2769;49.864;8.656;2023-04-24T14:53:56;3.43;;;3.10;;
5493;SDS011;2769;49.864;8.656;2023-04-24T14:56:24;3.70;;;3.40;;
5493;SDS011;2769;49.864;8.656;2023-04-24T14:58:52;2.83;;;2.63;;
5493;SDS011;2769;49.864;8.656;2023-04-24T15:01:20;3.40;;;3.10;;
5493;SDS011;2769;49.864;8.656;2023-04-24T15:03:53;4.93;;;3.80;;
5493;SDS011;2769;49.864;8.656;2023-04-24T15:06:21;3.53;;;3.23;;
5493;SDS011;2769;49.864;8.656;2023-04-24T15:08:50;3.20;;;3.00;;
5493;SDS011;2769;49.864;8.656;2023-04-24T15:11:18;3.27;;;2.97;;
5493;SDS011;2769;49.864;8.656;2023-04-24T15:13:46;3.60;;;3.30;;
5493;SDS011;2769;49.864;8.656;2023-04-24T15:16:14;4.07;;;3.23;;
5493;SDS011;2769;49.864;8.656;2023-04-24T15:18:42;3.00;;;2.80;;
5493;SDS011;2769;49.864;8.656;2023-04-24T15:21:10;3.57;;;3.20;;
5493;SDS011;2769;49.864;8.656;2023-04-24T15:23:39;2.97;;;2.77;;
5493;SDS011;2769;49.864;8.656;2023-04-24T15:26:08;5.73;;;3.23;;
5493;SDS011;2769;49.864;8.656;2023-04-24T15:28:36;4.10;;;2.70;;
5493;SDS011;2769;49.864;8.656;2023-04-24T15:31:04;3.20;;;2.90;;
5493;SDS011;2769;49.864;8.656;2023-04-24T15:33:32;3.63;;;3.30;;